sensor_id;sensor_type;location;lat;lon;timestamp;P1;durP1;ratioP1;P2;durP2;ratioP2
31210;SDS011;17836;50.948;3.946;2023-07-20T00:02:03;5.30;;;2.65;;
31210;SDS011;17836;50.948;3.946;2023-07-20T00:04:30;7.18;;;3.55;;
31210;SDS011;17836;50.948;3.946;2023-07-20T00:06:55;5.33;;;2.80;;
31210;SDS011;17836;50.948;3.946;2023-07-20T00:09:20;5.00;;;2.87;;
31210;SDS011;17836;50.948;3.946;2023-07-20T00:11:49;8.35;;;3.63;;
31210;SDS011;17836;50.948;3.946;2023-07-20T00:14:18;10.57;;;3.88;;
31210;SDS011;17836;50.948;3.946;2023-07-20T00:16:44;7.82;;;4.13;;
31210;SDS011;17836;50.948;3.946;2023-07-20T00:19:11;8.82;;;4.03;;
31210;SDS011;17836;50.948;3.946;2023-07-20T00:21:36;9.30;;;4.23;;
31210;SDS011;17836;50.948;3.946;2023-07-20T00:24:02;12.18;;;4.70;;
31210;SDS011;17836;50.948;3.946;2023-07-20T00:26:28;6.35;;;4.55;;
31210;SDS011;17836;50.948;3.946;2023-07-20T00:28:53;9.00;;;5.10;;
31210;SDS011;17836;50.948;3.946;2023-07-20T00:31:20;7.43;;;4.22;;
31210;SDS011;17836;50.948;3.946;2023-07-20T00:33:46;8.23;;;3.77;;
31210;SDS011;17836;50.948;3.946;2023-07-20T00:36:13;8.75;;;4.13;;
31210;SDS011;17836;50.948;3.946;2023-07-20T00:38:38;9.15;;;5.03;;
31210;SDS011;17836;50.948;3.946;2023-07-20T00:41:04;11.27;;;5.50;;
31210;SDS011;17836;50.948;3.946;2023-07-20T00:43:29;8.80;;;4.83;;
31210;SDS011;17836;50.948;3.946;2023-07-20T00:45:54;11.77;;;4.90;;
31210;SDS011;17836;50.948;3.946;2023-07-20T00:48:20;7.47;;;4.80;;
31210;SDS011;17836;50.948;3.946;2023-07-20T00:50:48;10.80;;;5.07;;
31210;SDS011;17836;50.948;3.946;2023-07-20T00:53:15;7.60;;;5.43;;
31210;SDS011;17836;50.948;3.946;2023-07-20T00:55:41;10.70;;;5.40;;
31210;SDS011;17836;50.948;3.946;2023-07-20T00:58:09;10.80;;;5.72;;
31210;SDS011;17836;50.948;3.946;2023-07-20T01:03:09;10.82;;;7.03;;
31210;SDS011;17836;50.948;3.946;2023-07-20T01:05:54;11.67;;;5.67;;
31210;SDS011;17836;50.948;3.946;2023-07-20T01:09:06;14.07;;;6.28;;
31210;SDS011;17836;50.948;3.946;2023-07-20T01:11:46;8.45;;;6.10;;
31210;SDS011;17836;50.948;3.946;2023-07-20T01:14:03;7.40;;;6.22;;
31210;SDS011;17836;50.948;3.946;2023-07-20T01:16:28;16.02;;;6.60;;
31210;SDS011;17836;50.948;3.946;2023-07-20T01:18:53;15.50;;;6.70;;
31210;SDS011;17836;50.948;3.946;2023-07-20T01:21:21;9.13;;;6.13;;
31210;SDS011;17836;50.948;3.946;2023-07-20T01:24:00;14.40;;;6.65;;
31210;SDS011;17836;50.948;3.946;2023-07-20T01:31:42;9.32;;;6.05;;
31210;SDS011;17836;50.948;3.946;2023-07-20T01:34:09;9.85;;;6.95;;
31210;SDS011;17836;50.948;3.946;2023-07-20T01:36:37;9.93;;;6.10;;
31210;SDS011;17836;50.948;3.946;2023-07-20T01:39:02;11.15;;;6.43;;
31210;SDS011;17836;50.948;3.946;2023-07-20T01:41:29;12.15;;;6.78;;
31210;SDS011;17836;50.948;3.946;2023-07-20T01:43:57;7.95;;;6.80;;
31210;SDS011;17836;50.948;3.946;2023-07-20T01:46:22;7.40;;;6.55;;
31210;SDS011;17836;50.948;3.946;2023-07-20T01:48:47;12.47;;;7.10;;
31210;SDS011;17836;50.948;3.946;2023-07-20T01:51:15;13.52;;;7.00;;
31210;SDS011;17836;50.948;3.946;2023-07-20T01:53:42;12.00;;;7.22;;
31210;SDS011;17836;50.948;3.946;2023-07-20T01:56:08;12.33;;;6.83;;
31210;SDS011;17836;50.948;3.946;2023-07-20T01:58:33;9.53;;;6.33;;
31210;SDS011;17836;50.948;3.946;2023-07-20T02:01:00;8.85;;;6.68;;
31210;SDS011;17836;50.948;3.946;2023-07-20T02:03:26;12.05;;;8.30;;
31210;SDS011;17836;50.948;3.946;2023-07-20T02:05:52;9.20;;;7.47;;
31210;SDS011;17836;50.948;3.946;2023-07-20T02:08:17;12.53;;;6.63;;
31210;SDS011;17836;50.948;3.946;2023-07-20T02:10:44;10.15;;;6.20;;
31210;SDS011;17836;50.948;3.946;2023-07-20T02:13:10;10.00;;;7.28;;
31210;SDS011;17836;50.948;3.946;2023-07-20T02:15:35;11.53;;;7.40;;
31210;SDS011;17836;50.948;3.946;2023-07-20T02:18:00;11.00;;;7.10;;
31210;SDS011;17836;50.948;3.946;2023-07-20T02:20:26;9.25;;;6.78;;
31210;SDS011;17836;50.948;3.946;2023-07-20T02:22:52;10.52;;;7.07;;
31210;SDS011;17836;50.948;3.946;2023-07-20T02:25:17;13.03;;;7.37;;
31210;SDS011;17836;50.948;3.946;2023-07-20T02:27:45;10.15;;;6.78;;
31210;SDS011;17836;50.948;3.946;2023-07-20T02:30:10;14.30;;;7.93;;
31210;SDS011;17836;50.948;3.946;2023-07-20T02:32:36;12.05;;;8.50;;
31210;SDS011;17836;50.948;3.946;2023-07-20T02:35:01;12.45;;;8.02;;
31210;SDS011;17836;50.948;3.946;2023-07-20T02:37:28;11.50;;;7.50;;
31210;SDS011;17836;50.948;3.946;2023-07-20T02:39:53;12.30;;;8.65;;
31210;SDS011;17836;50.948;3.946;2023-07-20T02:42:21;12.98;;;8.23;;
31210;SDS011;17836;50.948;3.946;2023-07-20T02:44:48;13.23;;;9.07;;
31210;SDS011;17836;50.948;3.946;2023-07-20T02:47:13;11.38;;;8.50;;
31210;SDS011;17836;50.948;3.946;2023-07-20T02:49:38;9.52;;;8.27;;
31210;SDS011;17836;50.948;3.946;2023-07-20T02:52:03;10.30;;;8.27;;
31210;SDS011;17836;50.948;3.946;2023-07-20T02:54:29;11.85;;;8.20;;
31210;SDS011;17836;50.948;3.946;2023-07-20T02:56:57;10.00;;;8.70;;
31210;SDS011;17836;50.948;3.946;2023-07-20T02:59:22;12.87;;;9.10;;
31210;SDS011;17836;50.948;3.946;2023-07-20T03:01:47;11.53;;;8.17;;
31210;SDS011;17836;50.948;3.946;2023-07-20T03:04:13;11.20;;;8.80;;
31210;SDS011;17836;50.948;3.946;2023-07-20T03:06:38;14.63;;;9.13;;
31210;SDS011;17836;50.948;3.946;2023-07-20T03:09:04;10.68;;;8.65;;
31210;SDS011;17836;50.948;3.946;2023-07-20T03:11:29;12.75;;;10.20;;
31210;SDS011;17836;50.948;3.946;2023-07-20T03:13:54;15.40;;;9.70;;
31210;SDS011;17836;50.948;3.946;2023-07-20T03:16:23;12.57;;;7.72;;
31210;SDS011;17836;50.948;3.946;2023-07-20T03:18:50;14.73;;;9.43;;
31210;SDS011;17836;50.948;3.946;2023-07-20T03:21:16;11.38;;;9.80;;
31210;SDS011;17836;50.948;3.946;2023-07-20T03:23:41;12.25;;;9.57;;
31210;SDS011;17836;50.948;3.946;2023-07-20T03:26:06;12.75;;;9.48;;
31210;SDS011;17836;50.948;3.946;2023-07-20T03:28:35;14.48;;;9.70;;
31210;SDS011;17836;50.948;3.946;2023-07-20T03:31:00;11.90;;;10.05;;
31210;SDS011;17836;50.948;3.946;2023-07-20T03:33:26;17.83;;;10.60;;
31210;SDS011;17836;50.948;3.946;2023-07-20T03:35:52;12.55;;;9.02;;
31210;SDS011;17836;50.948;3.946;2023-07-20T03:38:18;10.43;;;9.40;;
31210;SDS011;17836;50.948;3.946;2023-07-20T03:41:00;12.60;;;8.88;;
31210;SDS011;17836;50.948;3.946;2023-07-20T03:43:26;12.25;;;9.43;;
31210;SDS011;17836;50.948;3.946;2023-07-20T03:45:52;12.02;;;9.65;;
31210;SDS011;17836;50.948;3.946;2023-07-20T03:48:18;12.82;;;9.98;;
31210;SDS011;17836;50.948;3.946;2023-07-20T03:50:44;13.25;;;9.65;;
31210;SDS011;17836;50.948;3.946;2023-07-20T03:53:10;12.75;;;9.30;;
31210;SDS011;17836;50.948;3.946;2023-07-20T03:55:35;12.63;;;9.70;;
31210;SDS011;17836;50.948;3.946;2023-07-20T03:58:01;13.03;;;9.47;;
31210;SDS011;17836;50.948;3.946;2023-07-20T04:00:28;10.18;;;8.93;;
31210;SDS011;17836;50.948;3.946;2023-07-20T04:02:53;17.92;;;10.18;;
31210;SDS011;17836;50.948;3.946;2023-07-20T04:05:19;13.20;;;8.97;;
31210;SDS011;17836;50.948;3.946;2023-07-20T04:07:44;14.05;;;9.57;;
31210;SDS011;17836;50.948;3.946;2023-07-20T04:10:09;11.95;;;9.07;;
31210;SDS011;17836;50.948;3.946;2023-07-20T04:12:35;10.55;;;9.00;;
31210;SDS011;17836;50.948;3.946;2023-07-20T04:15:00;11.93;;;8.70;;
31210;SDS011;17836;50.948;3.946;2023-07-20T04:17:29;14.15;;;9.90;;
31210;SDS011;17836;50.948;3.946;2023-07-20T04:19:54;9.47;;;8.57;;
31210;SDS011;17836;50.948;3.946;2023-07-20T04:22:19;13.73;;;9.83;;
31210;SDS011;17836;50.948;3.946;2023-07-20T04:24:45;11.00;;;8.80;;
31210;SDS011;17836;50.948;3.946;2023-07-20T04:27:10;10.63;;;8.73;;
31210;SDS011;17836;50.948;3.946;2023-07-20T04:29:35;10.17;;;8.80;;
31210;SDS011;17836;50.948;3.946;2023-07-20T04:32:01;11.97;;;9.50;;
31210;SDS011;17836;50.948;3.946;2023-07-20T04:34:31;12.05;;;9.05;;
31210;SDS011;17836;50.948;3.946;2023-07-20T04:36:56;12.13;;;9.30;;
31210;SDS011;17836;50.948;3.946;2023-07-20T04:39:21;11.60;;;8.67;;
31210;SDS011;17836;50.948;3.946;2023-07-20T04:41:46;12.73;;;9.70;;
31210;SDS011;17836;50.948;3.946;2023-07-20T04:44:12;12.70;;;9.27;;
31210;SDS011;17836;50.948;3.946;2023-07-20T04:46:38;11.68;;;9.35;;
31210;SDS011;17836;50.948;3.946;2023-07-20T04:49:05;13.23;;;9.18;;
31210;SDS011;17836;50.948;3.946;2023-07-20T04:51:30;13.57;;;9.53;;
31210;SDS011;17836;50.948;3.946;2023-07-20T04:53:55;14.87;;;9.23;;
31210;SDS011;17836;50.948;3.946;2023-07-20T04:56:21;9.80;;;8.32;;
31210;SDS011;17836;50.948;3.946;2023-07-20T04:58:48;12.88;;;9.05;;
31210;SDS011;17836;50.948;3.946;2023-07-20T05:01:13;11.77;;;8.47;;
31210;SDS011;17836;50.948;3.946;2023-07-20T05:03:38;8.77;;;7.87;;
31210;SDS011;17836;50.948;3.946;2023-07-20T05:06:04;9.87;;;8.87;;
31210;SDS011;17836;50.948;3.946;2023-07-20T05:08:29;13.93;;;10.07;;
31210;SDS011;17836;50.948;3.946;2023-07-20T05:10:54;9.80;;;8.85;;
31210;SDS011;17836;50.948;3.946;2023-07-20T05:13:22;12.02;;;8.75;;
31210;SDS011;17836;50.948;3.946;2023-07-20T05:15:50;12.07;;;9.55;;
31210;SDS011;17836;50.948;3.946;2023-07-20T05:18:16;14.13;;;9.52;;
31210;SDS011;17836;50.948;3.946;2023-07-20T05:20:45;10.20;;;8.85;;
31210;SDS011;17836;50.948;3.946;2023-07-20T05:23:10;11.23;;;8.77;;
31210;SDS011;17836;50.948;3.946;2023-07-20T05:25:36;10.77;;;9.30;;
31210;SDS011;17836;50.948;3.946;2023-07-20T05:28:01;11.27;;;9.43;;
31210;SDS011;17836;50.948;3.946;2023-07-20T05:30:26;10.03;;;8.90;;
31210;SDS011;17836;50.948;3.946;2023-07-20T05:32:56;12.77;;;9.68;;
31210;SDS011;17836;50.948;3.946;2023-07-20T05:35:21;14.30;;;9.38;;
31210;SDS011;17836;50.948;3.946;2023-07-20T05:37:47;10.57;;;9.38;;
31210;SDS011;17836;50.948;3.946;2023-07-20T05:40:13;9.97;;;9.00;;
31210;SDS011;17836;50.948;3.946;2023-07-20T05:42:39;8.98;;;8.10;;
31210;SDS011;17836;50.948;3.946;2023-07-20T05:45:05;9.43;;;8.53;;
31210;SDS011;17836;50.948;3.946;2023-07-20T05:47:30;10.70;;;8.10;;
31210;SDS011;17836;50.948;3.946;2023-07-20T05:49:56;17.15;;;9.35;;
31210;SDS011;17836;50.948;3.946;2023-07-20T05:52:21;9.80;;;8.70;;
31210;SDS011;17836;50.948;3.946;2023-07-20T05:54:49;10.07;;;8.73;;
31210;SDS011;17836;50.948;3.946;2023-07-20T05:57:14;10.38;;;8.05;;
31210;SDS011;17836;50.948;3.946;2023-07-20T05:59:42;9.20;;;8.27;;
31210;SDS011;17836;50.948;3.946;2023-07-20T06:02:09;12.18;;;8.48;;
31210;SDS011;17836;50.948;3.946;2023-07-20T06:04:34;11.35;;;9.55;;
31210;SDS011;17836;50.948;3.946;2023-07-20T06:07:00;9.55;;;8.45;;
31210;SDS011;17836;50.948;3.946;2023-07-20T06:09:27;11.90;;;8.75;;
31210;SDS011;17836;50.948;3.946;2023-07-20T06:11:53;9.63;;;8.00;;
31210;SDS011;17836;50.948;3.946;2023-07-20T06:14:21;12.55;;;8.88;;
31210;SDS011;17836;50.948;3.946;2023-07-20T06:16:46;8.90;;;7.95;;
31210;SDS011;17836;50.948;3.946;2023-07-20T06:19:12;12.40;;;7.73;;
31210;SDS011;17836;50.948;3.946;2023-07-20T06:21:38;8.82;;;7.45;;
31210;SDS011;17836;50.948;3.946;2023-07-20T06:24:03;8.60;;;7.72;;
31210;SDS011;17836;50.948;3.946;2023-07-20T06:26:28;8.60;;;7.82;;
31210;SDS011;17836;50.948;3.946;2023-07-20T06:28:55;8.45;;;7.65;;
31210;SDS011;17836;50.948;3.946;2023-07-20T06:31:23;8.52;;;7.72;;
31210;SDS011;17836;50.948;3.946;2023-07-20T06:33:50;8.13;;;7.43;;
31210;SDS011;17836;50.948;3.946;2023-07-20T06:36:17;9.88;;;6.38;;
31210;SDS011;17836;50.948;3.946;2023-07-20T06:38:42;8.57;;;7.50;;
31210;SDS011;17836;50.948;3.946;2023-07-20T06:41:08;8.97;;;6.33;;
31210;SDS011;17836;50.948;3.946;2023-07-20T06:43:33;9.80;;;6.73;;
31210;SDS011;17836;50.948;3.946;2023-07-20T06:45:58;4.97;;;4.47;;
31210;SDS011;17836;50.948;3.946;2023-07-20T06:48:24;5.23;;;4.43;;
31210;SDS011;17836;50.948;3.946;2023-07-20T06:50:49;5.43;;;3.90;;
31210;SDS011;17836;50.948;3.946;2023-07-20T06:53:14;3.20;;;2.77;;
31210;SDS011;17836;50.948;3.946;2023-07-20T06:55:41;4.30;;;3.83;;
31210;SDS011;17836;50.948;3.946;2023-07-20T06:58:10;4.20;;;3.80;;
31210;SDS011;17836;50.948;3.946;2023-07-20T07:00:35;3.78;;;2.90;;
31210;SDS011;17836;50.948;3.946;2023-07-20T07:03:03;3.83;;;3.27;;
31210;SDS011;17836;50.948;3.946;2023-07-20T07:05:28;6.20;;;3.45;;
31210;SDS011;17836;50.948;3.946;2023-07-20T07:07:53;3.27;;;2.97;;
31210;SDS011;17836;50.948;3.946;2023-07-20T07:10:19;4.77;;;2.97;;
31210;SDS011;17836;50.948;3.946;2023-07-20T07:12:44;3.43;;;2.70;;
31210;SDS011;17836;50.948;3.946;2023-07-20T07:15:09;3.60;;;3.30;;
31210;SDS011;17836;50.948;3.946;2023-07-20T07:17:35;4.10;;;2.65;;
31210;SDS011;17836;50.948;3.946;2023-07-20T07:20:03;2.08;;;1.90;;
31210;SDS011;17836;50.948;3.946;2023-07-20T07:22:29;2.08;;;1.75;;
31210;SDS011;17836;50.948;3.946;2023-07-20T07:24:56;1.58;;;1.27;;
31210;SDS011;17836;50.948;3.946;2023-07-20T07:27:22;1.63;;;1.50;;
31210;SDS011;17836;50.948;3.946;2023-07-20T07:29:47;2.40;;;1.40;;
31210;SDS011;17836;50.948;3.946;2023-07-20T07:32:13;0.57;;;0.50;;
31210;SDS011;17836;50.948;3.946;2023-07-20T07:34:38;0.80;;;0.77;;
31210;SDS011;17836;50.948;3.946;2023-07-20T07:37:04;2.20;;;1.17;;
31210;SDS011;17836;50.948;3.946;2023-07-20T07:39:32;1.23;;;1.13;;
31210;SDS011;17836;50.948;3.946;2023-07-20T07:41:57;2.30;;;0.93;;
31210;SDS011;17836;50.948;3.946;2023-07-20T07:44:23;1.90;;;1.48;;
31210;SDS011;17836;50.948;3.946;2023-07-20T07:46:49;2.03;;;1.05;;
31210;SDS011;17836;50.948;3.946;2023-07-20T07:49:14;2.90;;;1.30;;
31210;SDS011;17836;50.948;3.946;2023-07-20T07:51:39;1.95;;;0.98;;
31210;SDS011;17836;50.948;3.946;2023-07-20T07:54:05;1.40;;;1.20;;
31210;SDS011;17836;50.948;3.946;2023-07-20T07:56:30;2.17;;;1.30;;
31210;SDS011;17836;50.948;3.946;2023-07-20T07:58:55;2.47;;;1.30;;
31210;SDS011;17836;50.948;3.946;2023-07-20T08:01:21;1.83;;;1.40;;
31210;SDS011;17836;50.948;3.946;2023-07-20T08:03:47;1.42;;;1.27;;
31210;SDS011;17836;50.948;3.946;2023-07-20T08:06:13;4.63;;;1.75;;
31210;SDS011;17836;50.948;3.946;2023-07-20T08:08:38;2.33;;;2.00;;
31210;SDS011;17836;50.948;3.946;2023-07-20T08:11:04;2.17;;;1.90;;
31210;SDS011;17836;50.948;3.946;2023-07-20T08:13:29;2.00;;;1.77;;
31210;SDS011;17836;50.948;3.946;2023-07-20T08:15:54;2.23;;;2.03;;
31210;SDS011;17836;50.948;3.946;2023-07-20T08:18:22;4.25;;;1.88;;
31210;SDS011;17836;50.948;3.946;2023-07-20T08:20:47;2.28;;;1.63;;
31210;SDS011;17836;50.948;3.946;2023-07-20T08:23:14;1.92;;;1.70;;
31210;SDS011;17836;50.948;3.946;2023-07-20T08:25:39;2.00;;;1.60;;
31210;SDS011;17836;50.948;3.946;2023-07-20T08:28:08;1.92;;;1.55;;
31210;SDS011;17836;50.948;3.946;2023-07-20T08:30:41;1.88;;;1.77;;
31210;SDS011;17836;50.948;3.946;2023-07-20T08:33:07;1.83;;;1.70;;
31210;SDS011;17836;50.948;3.946;2023-07-20T08:35:33;1.70;;;1.60;;
31210;SDS011;17836;50.948;3.946;2023-07-20T08:37:58;1.75;;;1.58;;
31210;SDS011;17836;50.948;3.946;2023-07-20T08:40:23;1.10;;;1.00;;
31210;SDS011;17836;50.948;3.946;2023-07-20T08:42:49;1.37;;;1.27;;
31210;SDS011;17836;50.948;3.946;2023-07-20T08:45:15;1.02;;;1.00;;
31210;SDS011;17836;50.948;3.946;2023-07-20T08:47:41;1.58;;;1.25;;
31210;SDS011;17836;50.948;3.946;2023-07-20T08:50:07;3.00;;;1.40;;
31210;SDS011;17836;50.948;3.946;2023-07-20T08:52:33;2.00;;;1.20;;
31210;SDS011;17836;50.948;3.946;2023-07-20T08:54:59;1.80;;;1.35;;
31210;SDS011;17836;50.948;3.946;2023-07-20T08:57:30;2.97;;;1.40;;
31210;SDS011;17836;50.948;3.946;2023-07-20T08:59:57;1.92;;;1.20;;
31210;SDS011;17836;50.948;3.946;2023-07-20T09:02:24;1.23;;;1.10;;
31210;SDS011;17836;50.948;3.946;2023-07-20T09:04:52;1.58;;;0.80;;
31210;SDS011;17836;50.948;3.946;2023-07-20T09:07:17;2.63;;;1.23;;
31210;SDS011;17836;50.948;3.946;2023-07-20T09:09:45;2.15;;;1.40;;
31210;SDS011;17836;50.948;3.946;2023-07-20T09:12:14;3.45;;;1.70;;
31210;SDS011;17836;50.948;3.946;2023-07-20T09:14:39;2.33;;;1.33;;
31210;SDS011;17836;50.948;3.946;2023-07-20T09:17:07;1.30;;;1.20;;
31210;SDS011;17836;50.948;3.946;2023-07-20T09:19:37;2.95;;;1.30;;
31210;SDS011;17836;50.948;3.946;2023-07-20T09:22:03;2.58;;;1.38;;
31210;SDS011;17836;50.948;3.946;2023-07-20T09:24:30;1.88;;;1.00;;
31210;SDS011;17836;50.948;3.946;2023-07-20T09:26:56;1.67;;;1.38;;
31210;SDS011;17836;50.948;3.946;2023-07-20T09:29:22;1.83;;;1.20;;
31210;SDS011;17836;50.948;3.946;2023-07-20T09:34:42;1.40;;;1.27;;
31210;SDS011;17836;50.948;3.946;2023-07-20T09:37:08;2.83;;;1.15;;
31210;SDS011;17836;50.948;3.946;2023-07-20T09:39:41;2.22;;;1.27;;
31210;SDS011;17836;50.948;3.946;2023-07-20T09:42:07;2.42;;;1.40;;
31210;SDS011;17836;50.948;3.946;2023-07-20T09:44:33;2.28;;;1.52;;
31210;SDS011;17836;50.948;3.946;2023-07-20T09:46:59;1.17;;;1.00;;
31210;SDS011;17836;50.948;3.946;2023-07-20T09:49:24;1.57;;;1.20;;
31210;SDS011;17836;50.948;3.946;2023-07-20T09:51:49;1.57;;;0.87;;
31210;SDS011;17836;50.948;3.946;2023-07-20T09:54:15;1.33;;;1.10;;
31210;SDS011;17836;50.948;3.946;2023-07-20T09:56:41;2.45;;;1.10;;
31210;SDS011;17836;50.948;3.946;2023-07-20T09:59:07;2.05;;;1.05;;
31210;SDS011;17836;50.948;3.946;2023-07-20T10:01:32;1.35;;;1.00;;
31210;SDS011;17836;50.948;3.946;2023-07-20T10:03:59;0.98;;;0.98;;
31210;SDS011;17836;50.948;3.946;2023-07-20T10:06:28;1.65;;;1.45;;
31210;SDS011;17836;50.948;3.946;2023-07-20T10:08:53;1.00;;;0.80;;
31210;SDS011;17836;50.948;3.946;2023-07-20T10:11:23;1.38;;;0.95;;
31210;SDS011;17836;50.948;3.946;2023-07-20T10:16:26;1.90;;;1.02;;
31210;SDS011;17836;50.948;3.946;2023-07-20T10:21:27;2.80;;;0.70;;
31210;SDS011;17836;50.948;3.946;2023-07-20T10:23:54;2.30;;;1.00;;
31210;SDS011;17836;50.948;3.946;2023-07-20T10:26:20;1.50;;;0.90;;
31210;SDS011;17836;50.948;3.946;2023-07-20T10:28:46;3.27;;;1.13;;
31210;SDS011;17836;50.948;3.946;2023-07-20T10:31:11;1.90;;;1.10;;
31210;SDS011;17836;50.948;3.946;2023-07-20T10:33:37;1.48;;;0.80;;
31210;SDS011;17836;50.948;3.946;2023-07-20T10:36:03;1.70;;;1.38;;
31210;SDS011;17836;50.948;3.946;2023-07-20T10:41:34;1.30;;;0.80;;
31210;SDS011;17836;50.948;3.946;2023-07-20T10:44:03;2.00;;;0.98;;
31210;SDS011;17836;50.948;3.946;2023-07-20T10:49:06;0.73;;;0.73;;
31210;SDS011;17836;50.948;3.946;2023-07-20T10:51:39;1.15;;;0.70;;
31210;SDS011;17836;50.948;3.946;2023-07-20T10:54:07;1.33;;;0.60;;
31210;SDS011;17836;50.948;3.946;2023-07-20T10:56:32;1.80;;;0.95;;
31210;SDS011;17836;50.948;3.946;2023-07-20T10:58:58;2.33;;;0.70;;
31210;SDS011;17836;50.948;3.946;2023-07-20T11:01:35;5.05;;;0.90;;
31210;SDS011;17836;50.948;3.946;2023-07-20T11:04:01;1.67;;;0.63;;
31210;SDS011;17836;50.948;3.946;2023-07-20T11:08:55;1.27;;;0.80;;
31210;SDS011;17836;50.948;3.946;2023-07-20T11:11:23;1.15;;;0.90;;
31210;SDS011;17836;50.948;3.946;2023-07-20T11:13:56;1.25;;;0.90;;
31210;SDS011;17836;50.948;3.946;2023-07-20T11:16:33;1.42;;;0.80;;
31210;SDS011;17836;50.948;3.946;2023-07-20T11:18:59;0.90;;;0.80;;
31210;SDS011;17836;50.948;3.946;2023-07-20T11:21:24;2.40;;;1.00;;
31210;SDS011;17836;50.948;3.946;2023-07-20T11:23:50;1.10;;;0.65;;
31210;SDS011;17836;50.948;3.946;2023-07-20T11:26:17;0.68;;;0.60;;
31210;SDS011;17836;50.948;3.946;2023-07-20T11:28:43;1.85;;;0.70;;
31210;SDS011;17836;50.948;3.946;2023-07-20T11:31:08;1.90;;;0.70;;
31210;SDS011;17836;50.948;3.946;2023-07-20T11:33:33;1.23;;;0.60;;
31210;SDS011;17836;50.948;3.946;2023-07-20T11:36:01;1.30;;;0.70;;
31210;SDS011;17836;50.948;3.946;2023-07-20T11:38:31;2.45;;;0.80;;
31210;SDS011;17836;50.948;3.946;2023-07-20T11:40:56;1.00;;;0.63;;
31210;SDS011;17836;50.948;3.946;2023-07-20T11:43:22;0.93;;;0.80;;
31210;SDS011;17836;50.948;3.946;2023-07-20T11:45:51;1.23;;;0.90;;
31210;SDS011;17836;50.948;3.946;2023-07-20T11:48:16;1.90;;;0.80;;
31210;SDS011;17836;50.948;3.946;2023-07-20T11:50:42;1.60;;;0.80;;
31210;SDS011;17836;50.948;3.946;2023-07-20T11:53:07;1.53;;;0.70;;
31210;SDS011;17836;50.948;3.946;2023-07-20T11:55:32;1.27;;;1.17;;
31210;SDS011;17836;50.948;3.946;2023-07-20T11:58:04;1.63;;;0.88;;
31210;SDS011;17836;50.948;3.946;2023-07-20T12:00:29;0.88;;;0.70;;
31210;SDS011;17836;50.948;3.946;2023-07-20T12:02:55;1.55;;;1.00;;
31210;SDS011;17836;50.948;3.946;2023-07-20T12:05:22;2.05;;;1.00;;
31210;SDS011;17836;50.948;3.946;2023-07-20T12:07:48;2.70;;;0.90;;
31210;SDS011;17836;50.948;3.946;2023-07-20T12:10:16;1.45;;;0.85;;
31210;SDS011;17836;50.948;3.946;2023-07-20T12:12:48;1.10;;;0.80;;
31210;SDS011;17836;50.948;3.946;2023-07-20T12:15:20;3.03;;;0.95;;
31210;SDS011;17836;50.948;3.946;2023-07-20T12:17:49;1.45;;;0.90;;
31210;SDS011;17836;50.948;3.946;2023-07-20T12:20:24;2.97;;;0.98;;
31210;SDS011;17836;50.948;3.946;2023-07-20T12:22:49;1.70;;;1.02;;
31210;SDS011;17836;50.948;3.946;2023-07-20T12:25:14;4.10;;;1.00;;
31210;SDS011;17836;50.948;3.946;2023-07-20T12:27:40;5.97;;;2.10;;
31210;SDS011;17836;50.948;3.946;2023-07-20T12:30:06;4.38;;;2.10;;
31210;SDS011;17836;50.948;3.946;2023-07-20T12:32:32;2.88;;;2.08;;
31210;SDS011;17836;50.948;3.946;2023-07-20T12:34:58;3.03;;;2.53;;
31210;SDS011;17836;50.948;3.946;2023-07-20T12:37:25;2.90;;;2.70;;
31210;SDS011;17836;50.948;3.946;2023-07-20T12:39:51;5.40;;;4.00;;
31210;SDS011;17836;50.948;3.946;2023-07-20T12:42:16;4.50;;;3.90;;
31210;SDS011;17836;50.948;3.946;2023-07-20T12:44:42;5.55;;;3.05;;
31210;SDS011;17836;50.948;3.946;2023-07-20T12:47:09;4.05;;;2.92;;
31210;SDS011;17836;50.948;3.946;2023-07-20T12:49:36;3.88;;;2.90;;
31210;SDS011;17836;50.948;3.946;2023-07-20T12:52:02;4.80;;;3.63;;
31210;SDS011;17836;50.948;3.946;2023-07-20T12:54:27;3.60;;;3.40;;
31210;SDS011;17836;50.948;3.946;2023-07-20T12:56:52;3.50;;;3.20;;
31210;SDS011;17836;50.948;3.946;2023-07-20T12:59:17;3.43;;;3.20;;
31210;SDS011;17836;50.948;3.946;2023-07-20T13:01:43;3.07;;;2.80;;
31210;SDS011;17836;50.948;3.946;2023-07-20T13:04:09;3.60;;;2.75;;
31210;SDS011;17836;50.948;3.946;2023-07-20T13:06:35;3.55;;;3.25;;
31210;SDS011;17836;50.948;3.946;2023-07-20T13:09:01;3.30;;;3.03;;
31210;SDS011;17836;50.948;3.946;2023-07-20T13:11:26;2.17;;;2.08;;
31210;SDS011;17836;50.948;3.946;2023-07-20T13:13:51;2.90;;;2.00;;
31210;SDS011;17836;50.948;3.946;2023-07-20T13:16:17;3.80;;;2.40;;
31210;SDS011;17836;50.948;3.946;2023-07-20T13:18:42;2.70;;;1.83;;
31210;SDS011;17836;50.948;3.946;2023-07-20T13:21:09;2.08;;;1.73;;
31210;SDS011;17836;50.948;3.946;2023-07-20T13:23:36;3.22;;;1.83;;
31210;SDS011;17836;50.948;3.946;2023-07-20T13:26:02;2.03;;;1.30;;
31210;SDS011;17836;50.948;3.946;2023-07-20T13:28:28;1.35;;;1.15;;
31210;SDS011;17836;50.948;3.946;2023-07-20T13:30:53;1.03;;;0.70;;
31210;SDS011;17836;50.948;3.946;2023-07-20T13:33:18;0.60;;;0.60;;
31210;SDS011;17836;50.948;3.946;2023-07-20T13:35:46;1.17;;;1.07;;
31210;SDS011;17836;50.948;3.946;2023-07-20T13:38:12;1.00;;;0.73;;
31210;SDS011;17836;50.948;3.946;2023-07-20T13:40:37;0.85;;;0.65;;
31210;SDS011;17836;50.948;3.946;2023-07-20T13:43:02;1.50;;;0.65;;
31210;SDS011;17836;50.948;3.946;2023-07-20T13:45:27;1.07;;;0.80;;
31210;SDS011;17836;50.948;3.946;2023-07-20T13:47:55;0.85;;;0.60;;
31210;SDS011;17836;50.948;3.946;2023-07-20T13:50:20;0.90;;;0.47;;
31210;SDS011;17836;50.948;3.946;2023-07-20T13:52:46;1.20;;;0.50;;
31210;SDS011;17836;50.948;3.946;2023-07-20T13:55:11;0.40;;;0.40;;
31210;SDS011;17836;50.948;3.946;2023-07-20T13:57:37;0.40;;;0.40;;
31210;SDS011;17836;50.948;3.946;2023-07-20T14:00:03;0.60;;;0.40;;
31210;SDS011;17836;50.948;3.946;2023-07-20T14:02:31;0.50;;;0.43;;
31210;SDS011;17836;50.948;3.946;2023-07-20T14:04:56;0.60;;;0.60;;
31210;SDS011;17836;50.948;3.946;2023-07-20T14:07:22;0.60;;;0.50;;
31210;SDS011;17836;50.948;3.946;2023-07-20T14:09:47;1.60;;;0.50;;
31210;SDS011;17836;50.948;3.946;2023-07-20T14:12:12;1.57;;;0.50;;
31210;SDS011;17836;50.948;3.946;2023-07-20T14:14:39;0.90;;;0.60;;
31210;SDS011;17836;50.948;3.946;2023-07-20T14:17:05;1.95;;;0.57;;
31210;SDS011;17836;50.948;3.946;2023-07-20T14:19:31;0.90;;;0.52;;
31210;SDS011;17836;50.948;3.946;2023-07-20T14:21:56;0.80;;;0.80;;
31210;SDS011;17836;50.948;3.946;2023-07-20T14:24:24;1.20;;;0.57;;
31210;SDS011;17836;50.948;3.946;2023-07-20T14:26:49;1.37;;;0.80;;
31210;SDS011;17836;50.948;3.946;2023-07-20T14:29:16;0.90;;;0.80;;
31210;SDS011;17836;50.948;3.946;2023-07-20T14:31:43;0.77;;;0.57;;
31210;SDS011;17836;50.948;3.946;2023-07-20T14:34:15;2.92;;;0.75;;
31210;SDS011;17836;50.948;3.946;2023-07-20T14:36:40;2.40;;;1.17;;
31210;SDS011;17836;50.948;3.946;2023-07-20T14:39:05;1.33;;;0.80;;
31210;SDS011;17836;50.948;3.946;2023-07-20T14:41:31;1.20;;;0.80;;
31210;SDS011;17836;50.948;3.946;2023-07-20T14:43:56;1.20;;;1.10;;
31210;SDS011;17836;50.948;3.946;2023-07-20T14:46:21;2.38;;;1.33;;
31210;SDS011;17836;50.948;3.946;2023-07-20T14:48:47;1.63;;;1.30;;
31210;SDS011;17836;50.948;3.946;2023-07-20T14:51:12;2.72;;;1.40;;
31210;SDS011;17836;50.948;3.946;2023-07-20T14:53:38;1.63;;;1.33;;
31210;SDS011;17836;50.948;3.946;2023-07-20T14:56:03;2.10;;;1.57;;
31210;SDS011;17836;50.948;3.946;2023-07-20T14:58:29;2.35;;;2.15;;
31210;SDS011;17836;50.948;3.946;2023-07-20T15:00:54;3.00;;;2.35;;
31210;SDS011;17836;50.948;3.946;2023-07-20T15:03:19;3.53;;;3.17;;